< < Back
Terminal Aerodrome Forecast


Current Version              Previous Versions:   1  2  3  4  5  6  7  8  9  

Terminal Aerodrome Forecast

965
FTUS42 KGSP 301001 AAA
TAFHKY
TAF AMD
KHKY 301001Z 3010/0106 06005KT P6SM OVC007
     FM301500 05006KT P6SM SCT007 BKN012
     FM302100 08006KT P6SM -SHRA OVC020
      TEMPO 3022/0102 4SM TSRA OVC015CB
     FM010200 06005KT 5SM SHRA OVC010
     FM010300 06004KT 4SM -RA OVC003=

Latest METAR

663
SAUS70 KWBC 301700 RRD
MTRHKY
METAR KHKY 301653Z 05006KT 6SM BR OVC010 17/16 A3011 RMK AO2 CIG 004V012
SLP179 T01670156


USA.gov is the U.S. government's official web portal to all federal, state and local government web resources and services.